首页
METAR-TAF:

METAR-TAF

机场 :

贝尔高姆, 印度

纬度: 15-51-33N, 经度: 74-37-03E, 海拔: 758米

当前天气观测

该预报发布于10小时和28分钟前的14:30 UTC
风速9节,风向西转西南
温度 22°C
湿度 94%
气压 1012 hPa
能見度: 4000
散云层高于700英尺
散云层高于1200英尺
多云层高于8000英尺
小雨,

METAR: VOBM 161430Z 25009KT 4000 -RA SCT007 SCT012 BKN080 22/21 Q1012

时间: 06:28 (00:58 UTC)

预报

该预报发布于1小时和58分钟前的23:00 UTC
预报有效从17日的 00点(UTC)到 17日的 09点(UTC)
风速10节,风向西南
能見度: 6000
散云层高于1200英尺
散云层高于8000英尺

TAF: VOBM 162300Z 1700/1709 23010KT 6000 SCT012 SCT080

超过4000个机场的气象观测和天气预报(METAR&TAF报告)。

可查询的气象台以黄色和红色小点在地图上表示。

将鼠标移到小点上方,可查看气象台名称。

然后点击查看天气观测和预报。

如需切换地图:点击带黑十字的绿色按钮放大地图;点击带横线的绿色按钮缩小地图;或者点击绿色箭头查看邻近地区的地图。


METAR-TAF: